Time;durP1;ratioP1;P1;durP2;ratioP2;P2;SDS_P1;SDS_P2;PMS_P1;PMS_P2;Temp;Humidity;BMP_temperature;BMP_pressure;BME280_temperature;BME280_humidity;BME280_pressure;Samples;Min_cycle;Max_cycle;Signal;HPM_P1;HPM_P2
2021/12/28 00:01:31;;;;;;;2.08;1.00;;;;;;;;;;4959937;28;20447;-67
2021/12/28 00:04:02;;;;;;;2.35;1.13;;;;;;;;;;4960145;28;20079;-68
2021/12/28 00:06:29;;;;;;;3.72;1.35;;;;;;;;;;4959954;28;20055;-68
2021/12/28 00:08:55;;;;;;;5.97;1.10;;;;;;;;;;4969143;28;20099;-67
2021/12/28 00:11:22;;;;;;;3.72;1.13;;;;;;;;;;4967720;28;20043;-68
2021/12/28 00:13:49;;;;;;;5.40;1.48;;;;;;;;;;4959627;28;20110;-68
2021/12/28 00:18:45;;;;;;;4.03;1.30;;;;;;;;;;4973162;28;20089;-67
2021/12/28 00:21:11;;;;;;;7.50;1.40;;;;;;;;;;4977632;28;20093;-67
2021/12/28 00:23:39;;;;;;;5.90;1.35;;;;;;;;;;4974744;28;20047;-68
2021/12/28 00:26:11;;;;;;;6.38;1.27;;;;;;;;;;4959798;28;20491;-68
2021/12/28 00:28:38;;;;;;;7.38;1.50;;;;;;;;;;4961236;28;20054;-66
2021/12/28 00:31:05;;;;;;;5.70;1.30;;;;;;;;;;4979233;28;20082;-67
2021/12/28 00:33:32;;;;;;;6.05;1.88;;;;;;;;;;4959916;28;20047;-67
2021/12/28 00:35:59;;;;;;;11.70;1.98;;;;;;;;;;4960051;28;20051;-67
2021/12/28 00:38:26;;;;;;;10.55;1.58;;;;;;;;;;4976724;28;20051;-68
2021/12/28 00:40:58;;;;;;;9.23;1.30;;;;;;;;;;4959548;28;20051;-68
2021/12/28 00:43:26;;;;;;;6.53;1.50;;;;;;;;;;4959751;29;20055;-67
2021/12/28 00:45:53;;;;;;;8.35;2.03;;;;;;;;;;4959648;29;20490;-68
2021/12/28 00:48:19;;;;;;;6.10;1.48;;;;;;;;;;4973062;28;20054;-68
2021/12/28 00:50:46;;;;;;;8.57;1.33;;;;;;;;;;4967745;28;20047;-66
2021/12/28 00:53:13;;;;;;;8.43;1.67;;;;;;;;;;4978856;28;20102;-69
2021/12/28 00:55:40;;;;;;;10.50;2.50;;;;;;;;;;4962666;28;20392;-68
2021/12/28 00:58:07;;;;;;;13.40;1.90;;;;;;;;;;4975160;28;20047;-67
2021/12/28 01:00:36;;;;;;;13.23;1.50;;;;;;;;;;4974404;28;20047;-68
2021/12/28 01:03:04;;;;;;;11.43;1.50;;;;;;;;;;4956539;28;20055;-67
2021/12/28 01:05:32;;;;;;;8.77;1.42;;;;;;;;;;4956407;29;20062;-67
2021/12/28 01:07:58;;;;;;;5.15;1.23;;;;;;;;;;4959700;28;20047;-67
2021/12/28 01:10:28;;;;;;;11.25;1.45;;;;;;;;;;4958646;28;20110;-67
2021/12/28 01:12:56;;;;;;;7.38;1.20;;;;;;;;;;4954297;28;20063;-67
2021/12/28 01:15:24;;;;;;;4.68;1.00;;;;;;;;;;4955338;28;20113;-66
2021/12/28 01:17:50;;;;;;;6.68;1.15;;;;;;;;;;4972397;28;20054;-65
2021/12/28 01:20:17;;;;;;;8.23;1.50;;;;;;;;;;4972134;28;20095;-66
2021/12/28 01:22:44;;;;;;;7.85;1.30;;;;;;;;;;4973914;28;20144;-65
2021/12/28 01:25:12;;;;;;;8.82;1.30;;;;;;;;;;4973821;28;20074;-66
2021/12/28 01:27:39;;;;;;;6.18;1.50;;;;;;;;;;4958251;28;20051;-65
2021/12/28 01:30:07;;;;;;;3.65;1.10;;;;;;;;;;4957219;28;20105;-65
2021/12/28 01:32:35;;;;;;;6.20;1.50;;;;;;;;;;4973150;28;20051;-67
2021/12/28 01:35:04;;;;;;;3.75;1.10;;;;;;;;;;4972421;28;20098;-65
2021/12/28 01:37:31;;;;;;;4.13;1.23;;;;;;;;;;4965684;28;20105;-66
2021/12/28 01:39:58;;;;;;;6.95;2.08;;;;;;;;;;4964849;28;20188;-65
2021/12/28 01:42:24;;;;;;;2.38;1.17;;;;;;;;;;4957391;28;20051;-65
2021/12/28 01:44:51;;;;;;;5.65;1.40;;;;;;;;;;4964544;28;20129;-65
2021/12/28 01:47:18;;;;;;;6.32;1.20;;;;;;;;;;4953676;29;20459;-66
2021/12/28 01:49:44;;;;;;;2.17;1.15;;;;;;;;;;4958701;28;20050;-67
2021/12/28 01:52:11;;;;;;;4.63;1.10;;;;;;;;;;4955304;28;20046;-67
2021/12/28 01:54:38;;;;;;;7.20;1.02;;;;;;;;;;4973941;28;20047;-68
2021/12/28 01:57:05;;;;;;;9.45;1.00;;;;;;;;;;4975022;28;20102;-68
2021/12/28 01:59:31;;;;;;;11.43;2.25;;;;;;;;;;4970608;28;20047;-68
2021/12/28 02:01:59;;;;;;;8.68;1.10;;;;;;;;;;4969244;28;20043;-67
2021/12/28 02:04:28;;;;;;;8.85;1.55;;;;;;;;;;4974357;28;20051;-67
2021/12/28 02:07:13;;;;;;;11.18;1.50;;;;;;;;;;4974567;28;20105;-68
2021/12/28 02:09:40;;;;;;;9.57;1.30;;;;;;;;;;4957624;28;20517;-66
2021/12/28 02:12:07;;;;;;;6.45;1.55;;;;;;;;;;4937150;29;20114;-67
2021/12/28 02:14:34;;;;;;;7.78;1.65;;;;;;;;;;4955364;28;20047;-68
2021/12/28 02:17:00;;;;;;;6.78;1.30;;;;;;;;;;4955123;28;20054;-67
2021/12/28 02:19:27;;;;;;;8.85;1.60;;;;;;;;;;4955580;28;20051;-67
2021/12/28 02:21:54;;;;;;;5.57;1.58;;;;;;;;;;4953776;28;20102;-67
2021/12/28 02:24:20;;;;;;;6.63;1.45;;;;;;;;;;4958282;28;20418;-66
2021/12/28 02:26:47;;;;;;;3.67;0.95;;;;;;;;;;4968909;28;20047;-68
2021/12/28 02:29:13;;;;;;;7.72;1.35;;;;;;;;;;4954847;29;20054;-68
2021/12/28 02:31:40;;;;;;;7.43;1.70;;;;;;;;;;4954642;28;20047;-66
2021/12/28 02:34:07;;;;;;;6.22;1.20;;;;;;;;;;4954532;29;20074;-67
2021/12/28 02:36:33;;;;;;;7.30;2.30;;;;;;;;;;4957886;28;20462;-67
2021/12/28 02:39:00;;;;;;;8.60;1.42;;;;;;;;;;4973987;28;20391;-67
2021/12/28 02:41:27;;;;;;;8.52;1.63;;;;;;;;;;4973746;28;20509;-66
2021/12/28 02:44:02;;;;;;;6.47;1.48;;;;;;;;;;4974078;28;20055;-67
2021/12/28 02:46:29;;;;;;;6.97;1.33;;;;;;;;;;4965272;28;20147;-67
2021/12/28 02:48:55;;;;;;;10.10;1.40;;;;;;;;;;4954482;28;20051;-67
2021/12/28 02:51:22;;;;;;;8.98;1.67;;;;;;;;;;4970262;28;20050;-67
2021/12/28 02:53:48;;;;;;;5.30;1.48;;;;;;;;;;4973470;28;20054;-67
2021/12/28 02:56:16;;;;;;;7.53;1.45;;;;;;;;;;4955085;28;20419;-66
2021/12/28 02:58:48;;;;;;;8.95;1.67;;;;;;;;;;4957689;28;20042;-68
2021/12/28 03:01:34;;;;;;;7.22;1.20;;;;;;;;;;4965095;28;20094;-67
2021/12/28 03:04:04;;;;;;;8.75;1.60;;;;;;;;;;4953985;28;20498;-67
2021/12/28 03:06:32;;;;;;;10.80;2.00;;;;;;;;;;4957131;28;20101;-68
2021/12/28 03:08:59;;;;;;;12.85;1.75;;;;;;;;;;4972326;28;20105;-68
2021/12/28 03:11:28;;;;;;;6.97;1.45;;;;;;;;;;4971272;28;20101;-67
2021/12/28 03:13:57;;;;;;;13.68;1.90;;;;;;;;;;4954968;28;20675;-68
2021/12/28 03:16:25;;;;;;;13.70;1.40;;;;;;;;;;4966274;28;20477;-68
2021/12/28 03:18:52;;;;;;;6.88;1.20;;;;;;;;;;4973252;28;20070;-67
2021/12/28 03:21:20;;;;;;;9.68;2.13;;;;;;;;;;4956246;28;20047;-68
2021/12/28 03:23:48;;;;;;;9.48;1.38;;;;;;;;;;4953341;28;20574;-69
2021/12/28 03:26:15;;;;;;;12.95;1.60;;;;;;;;;;4953970;28;20110;-68
2021/12/28 03:28:42;;;;;;;4.95;1.17;;;;;;;;;;4968847;28;20047;-67
2021/12/28 03:31:12;;;;;;;7.55;1.92;;;;;;;;;;4953811;29;20047;-68
2021/12/28 03:33:41;;;;;;;9.02;1.35;;;;;;;;;;4968912;28;20055;-68
2021/12/28 03:36:09;;;;;;;7.63;2.17;;;;;;;;;;4973006;28;20058;-68
2021/12/28 03:38:36;;;;;;;5.70;1.40;;;;;;;;;;4963729;28;20046;-68
2021/12/28 03:41:07;;;;;;;7.25;1.33;;;;;;;;;;4961529;28;20048;-68
2021/12/28 03:43:39;;;;;;;8.77;1.38;;;;;;;;;;4953561;28;20055;-68
2021/12/28 03:46:06;;;;;;;7.70;1.20;;;;;;;;;;4953684;29;20086;-68
2021/12/28 03:48:34;;;;;;;11.07;1.83;;;;;;;;;;4953491;28;20055;-67
2021/12/28 03:51:01;;;;;;;11.63;1.67;;;;;;;;;;4953590;29;20051;-67
2021/12/28 03:53:28;;;;;;;12.18;1.63;;;;;;;;;;4953501;28;20079;-68
2021/12/28 03:55:54;;;;;;;5.85;1.17;;;;;;;;;;4967247;28;20113;-68
2021/12/28 03:58:21;;;;;;;8.85;1.67;;;;;;;;;;4972823;28;20121;-67
2021/12/28 04:00:48;;;;;;;9.45;1.75;;;;;;;;;;4973129;28;20114;-68
2021/12/28 04:03:15;;;;;;;9.68;2.13;;;;;;;;;;4972826;28;20062;-67
2021/12/28 04:05:44;;;;;;;8.05;1.40;;;;;;;;;;4964922;28;20051;-68
2021/12/28 04:08:19;;;;;;;11.55;1.58;;;;;;;;;;4954233;28;20055;-66
2021/12/28 04:11:12;;;;;;;9.70;2.20;;;;;;;;;;4953539;28;20470;-66
2021/12/28 04:13:40;;;;;;;6.60;1.35;;;;;;;;;;4953323;28;20386;-67
2021/12/28 04:16:06;;;;;;;9.02;1.60;;;;;;;;;;4953480;28;20089;-66
2021/12/28 04:18:33;;;;;;;7.50;1.30;;;;;;;;;;4953224;29;20470;-66
2021/12/28 04:21:00;;;;;;;5.07;1.05;;;;;;;;;;4953349;29;20051;-67
2021/12/28 04:23:26;;;;;;;3.92;1.30;;;;;;;;;;4953286;29;20055;-66
2021/12/28 04:25:53;;;;;;;10.13;1.42;;;;;;;;;;4953521;29;20487;-67
2021/12/28 04:28:20;;;;;;;7.82;1.63;;;;;;;;;;4953250;29;20527;-66
2021/12/28 04:30:47;;;;;;;4.30;1.20;;;;;;;;;;4953167;28;20087;-66
2021/12/28 04:33:13;;;;;;;5.80;1.10;;;;;;;;;;4953557;28;20627;-66
2021/12/28 04:35:40;;;;;;;8.52;2.53;;;;;;;;;;4953468;28;20055;-66
2021/12/28 04:38:07;;;;;;;6.10;1.55;;;;;;;;;;4954528;29;20051;-67
2021/12/28 04:40:37;;;;;;;7.63;1.40;;;;;;;;;;4956801;28;20078;-66
2021/12/28 04:43:03;;;;;;;13.00;2.45;;;;;;;;;;4966299;28;20392;-66
2021/12/28 04:45:30;;;;;;;6.90;1.35;;;;;;;;;;4976042;28;20051;-67
2021/12/28 04:47:57;;;;;;;6.28;2.42;;;;;;;;;;4975887;28;20055;-66
2021/12/28 04:50:24;;;;;;;11.15;2.60;;;;;;;;;;4976113;28;20423;-66
2021/12/28 04:52:52;;;;;;;10.40;2.25;;;;;;;;;;4975710;28;20422;-67
2021/12/28 04:55:19;;;;;;;6.65;1.85;;;;;;;;;;4973084;28;20047;-66
2021/12/28 04:57:46;;;;;;;6.32;2.42;;;;;;;;;;4956290;29;20055;-66
2021/12/28 05:00:17;;;;;;;6.45;1.60;;;;;;;;;;4956620;29;20073;-66
2021/12/28 05:02:44;;;;;;;3.33;1.23;;;;;;;;;;4956175;28;20043;-67
2021/12/28 05:05:12;;;;;;;9.68;1.73;;;;;;;;;;4956503;29;20082;-66
2021/12/28 05:07:39;;;;;;;9.88;1.52;;;;;;;;;;4956364;28;20090;-67
2021/12/28 05:10:06;;;;;;;10.85;1.67;;;;;;;;;;4963162;28;20054;-66
2021/12/28 05:12:33;;;;;;;4.47;1.83;;;;;;;;;;4975414;28;20101;-66
2021/12/28 05:15:00;;;;;;;5.57;1.80;;;;;;;;;;4974091;28;20051;-67
2021/12/28 05:17:27;;;;;;;5.75;1.45;;;;;;;;;;4955897;28;20055;-67
2021/12/28 05:19:53;;;;;;;7.05;1.15;;;;;;;;;;4956228;28;20047;-67
2021/12/28 05:22:20;;;;;;;6.75;2.03;;;;;;;;;;4956123;29;20051;-66
2021/12/28 05:24:47;;;;;;;8.10;1.50;;;;;;;;;;4955915;28;20047;-66
2021/12/28 05:27:13;;;;;;;8.13;1.50;;;;;;;;;;4955862;29;20055;-66
2021/12/28 05:29:40;;;;;;;7.25;1.50;;;;;;;;;;4955950;28;20557;-67
2021/12/28 05:32:07;;;;;;;10.85;1.48;;;;;;;;;;4955939;28;20565;-66
2021/12/28 05:34:34;;;;;;;7.03;1.77;;;;;;;;;;4954618;28;20051;-66
2021/12/28 05:37:00;;;;;;;2.75;1.50;;;;;;;;;;4955952;28;20126;-66
2021/12/28 05:39:27;;;;;;;8.32;1.48;;;;;;;;;;4955814;28;20051;-67
2021/12/28 05:41:53;;;;;;;7.72;2.88;;;;;;;;;;4955860;28;20287;-66
2021/12/28 05:44:20;;;;;;;5.65;1.35;;;;;;;;;;4955826;29;20050;-67
2021/12/28 05:46:46;;;;;;;7.20;1.90;;;;;;;;;;4960246;28;20461;-66
2021/12/28 05:49:13;;;;;;;6.85;1.42;;;;;;;;;;4974993;28;20050;-67
2021/12/28 05:51:40;;;;;;;6.60;1.60;;;;;;;;;;4974830;28;20133;-66
2021/12/28 05:54:07;;;;;;;7.10;2.25;;;;;;;;;;4974763;28;20406;-66
2021/12/28 05:56:34;;;;;;;5.90;1.63;;;;;;;;;;4974803;28;20125;-66
2021/12/28 05:59:00;;;;;;;8.32;2.22;;;;;;;;;;4973694;28;20055;-67
2021/12/28 06:01:27;;;;;;;7.75;1.80;;;;;;;;;;4972545;28;20110;-66
2021/12/28 06:03:54;;;;;;;5.63;1.52;;;;;;;;;;4955266;29;20059;-67
2021/12/28 06:06:20;;;;;;;5.47;1.80;;;;;;;;;;4955253;28;20102;-66
2021/12/28 06:08:47;;;;;;;3.65;1.35;;;;;;;;;;4963951;28;20050;-67
2021/12/28 06:11:14;;;;;;;5.85;1.42;;;;;;;;;;4974622;28;20051;-67
2021/12/28 06:13:40;;;;;;;9.68;1.83;;;;;;;;;;4974284;28;20047;-66
2021/12/28 06:16:08;;;;;;;7.25;1.83;;;;;;;;;;4974425;28;20098;-66
2021/12/28 06:18:36;;;;;;;5.18;1.48;;;;;;;;;;4974215;28;20051;-66
2021/12/28 06:21:02;;;;;;;7.28;1.42;;;;;;;;;;4974452;28;20066;-66
2021/12/28 06:23:29;;;;;;;3.13;1.50;;;;;;;;;;4955729;28;20549;-66
2021/12/28 06:25:56;;;;;;;6.22;1.63;;;;;;;;;;4955067;29;20084;-66
2021/12/28 06:28:22;;;;;;;5.78;1.50;;;;;;;;;;4954771;28;20090;-67
2021/12/28 06:30:49;;;;;;;5.43;1.33;;;;;;;;;;4954847;28;20109;-66
2021/12/28 06:33:16;;;;;;;4.15;1.77;;;;;;;;;;4954676;28;20053;-66
2021/12/28 06:35:42;;;;;;;9.13;2.38;;;;;;;;;;4959992;28;20050;-66
2021/12/28 06:38:09;;;;;;;4.63;1.50;;;;;;;;;;4973876;28;20054;-66
2021/12/28 06:40:36;;;;;;;5.80;1.20;;;;;;;;;;4974126;28;20059;-66
2021/12/28 06:43:02;;;;;;;3.58;1.38;;;;;;;;;;4973872;28;20089;-66
2021/12/28 06:45:29;;;;;;;3.53;1.20;;;;;;;;;;4973759;28;20106;-66
2021/12/28 06:47:55;;;;;;;1.70;1.30;;;;;;;;;;4973756;28;20515;-66
2021/12/28 06:50:22;;;;;;;3.40;1.30;;;;;;;;;;4971803;28;20470;-67
2021/12/28 06:52:49;;;;;;;5.28;1.50;;;;;;;;;;4954280;29;20051;-67
2021/12/28 06:55:15;;;;;;;1.60;0.82;;;;;;;;;;4954466;29;20352;-66
2021/12/28 06:57:42;;;;;;;2.05;1.08;;;;;;;;;;4953679;28;20051;-67
2021/12/28 07:00:15;;;;;;;1.58;0.90;;;;;;;;;;4954429;28;20055;-66
2021/12/28 07:02:42;;;;;;;4.03;1.38;;;;;;;;;;4954118;29;20094;-67
2021/12/28 07:05:11;;;;;;;5.15;1.60;;;;;;;;;;4965767;28;20055;-66
2021/12/28 07:07:38;;;;;;;1.55;0.90;;;;;;;;;;4973416;28;20054;-66
2021/12/28 07:10:06;;;;;;;2.95;1.00;;;;;;;;;;4973648;28;20055;-67
2021/12/28 07:12:34;;;;;;;2.58;1.52;;;;;;;;;;4973194;28;20050;-67
2021/12/28 07:15:00;;;;;;;1.90;0.90;;;;;;;;;;4973437;28;20101;-67
2021/12/28 07:17:27;;;;;;;3.85;1.15;;;;;;;;;;4973315;28;20105;-67
2021/12/28 07:19:54;;;;;;;3.67;0.90;;;;;;;;;;4962228;28;20490;-67
2021/12/28 07:22:21;;;;;;;2.35;1.20;;;;;;;;;;4964351;28;20039;-67
2021/12/28 07:24:47;;;;;;;3.67;1.15;;;;;;;;;;4954928;28;20474;-67
2021/12/28 07:27:14;;;;;;;2.33;0.90;;;;;;;;;;4959093;28;20445;-67
2021/12/28 07:29:40;;;;;;;6.72;3.25;;;;;;;;;;4961636;28;20122;-66
2021/12/28 07:32:08;;;;;;;4.40;2.22;;;;;;;;;;4954006;28;20043;-67
2021/12/28 07:34:35;;;;;;;3.92;1.80;;;;;;;;;;4952686;28;20055;-64
2021/12/28 07:37:02;;;;;;;4.65;2.28;;;;;;;;;;4951684;28;20055;-66
2021/12/28 07:39:29;;;;;;;3.08;1.42;;;;;;;;;;4951794;28;20074;-67
2021/12/28 07:41:55;;;;;;;1.75;0.85;;;;;;;;;;4951786;28;20051;-66
2021/12/28 07:44:22;;;;;;;2.55;0.95;;;;;;;;;;4951617;28;20065;-66
2021/12/28 07:46:49;;;;;;;1.65;1.08;;;;;;;;;;4951626;28;20059;-68
2021/12/28 07:49:16;;;;;;;0.80;0.80;;;;;;;;;;4951233;28;20055;-67
2021/12/28 07:51:43;;;;;;;1.65;0.60;;;;;;;;;;4951898;28;20077;-66
2021/12/28 07:54:09;;;;;;;0.75;0.75;;;;;;;;;;4951604;28;20102;-67
2021/12/28 07:56:37;;;;;;;0.50;0.38;;;;;;;;;;4951453;28;20059;-67
2021/12/28 07:59:04;;;;;;;0.30;0.30;;;;;;;;;;4951991;28;20073;-67
2021/12/28 08:01:32;;;;;;;0.82;0.30;;;;;;;;;;4951151;28;20114;-66
2021/12/28 08:04:00;;;;;;;1.20;0.40;;;;;;;;;;4951314;28;20503;-67
2021/12/28 08:06:26;;;;;;;0.80;0.40;;;;;;;;;;4951617;28;20063;-67
2021/12/28 08:08:53;;;;;;;2.13;0.45;;;;;;;;;;4951684;28;20055;-67
2021/12/28 08:11:20;;;;;;;1.55;0.55;;;;;;;;;;4957351;28;20087;-67
2021/12/28 08:13:47;;;;;;;0.85;0.73;;;;;;;;;;4974096;28;20422;-66
2021/12/28 08:16:13;;;;;;;1.30;0.45;;;;;;;;;;4974606;28;20622;-69
2021/12/28 08:18:40;;;;;;;0.73;0.30;;;;;;;;;;4974515;28;20054;-67
2021/12/28 08:21:07;;;;;;;0.47;0.30;;;;;;;;;;4974746;28;20490;-66
2021/12/28 08:23:33;;;;;;;0.45;0.40;;;;;;;;;;4974295;28;20047;-67
2021/12/28 08:26:00;;;;;;;0.52;0.28;;;;;;;;;;4974552;28;20055;-67
2021/12/28 08:28:29;;;;;;;1.02;0.50;;;;;;;;;;4973653;28;20406;-67
2021/12/28 08:30:59;;;;;;;0.60;0.40;;;;;;;;;;4974481;28;20075;-67
2021/12/28 08:33:28;;;;;;;0.47;0.30;;;;;;;;;;4974194;28;20125;-66
2021/12/28 08:35:56;;;;;;;2.22;0.35;;;;;;;;;;4975028;28;20063;-65
2021/12/28 08:38:23;;;;;;;0.40;0.30;;;;;;;;;;4974818;28;20086;-67
2021/12/28 08:40:50;;;;;;;0.40;0.30;;;;;;;;;;4959785;28;20055;-65
2021/12/28 08:43:17;;;;;;;0.28;0.20;;;;;;;;;;4956867;28;20051;-65
2021/12/28 08:45:44;;;;;;;1.10;0.20;;;;;;;;;;4956846;28;20171;-65
2021/12/28 08:48:11;;;;;;;0.82;0.20;;;;;;;;;;4956733;29;20495;-66
2021/12/28 08:50:38;;;;;;;0.10;0.10;;;;;;;;;;4956976;28;20114;-65
2021/12/28 08:53:05;;;;;;;1.52;0.25;;;;;;;;;;4953988;28;20717;-68
2021/12/28 08:55:32;;;;;;;0.40;0.20;;;;;;;;;;4966955;28;20129;-68
2021/12/28 08:57:59;;;;;;;0.28;0.28;;;;;;;;;;4965330;28;20047;-65
2021/12/28 09:00:28;;;;;;;0.40;0.20;;;;;;;;;;4967307;28;20517;-67
2021/12/28 09:02:55;;;;;;;0.30;0.30;;;;;;;;;;4963185;28;20525;-69
2021/12/28 09:05:23;;;;;;;0.50;0.13;;;;;;;;;;4960646;28;20467;-66
2021/12/28 09:07:50;;;;;;;0.57;0.40;;;;;;;;;;4961250;28;20106;-65
2021/12/28 09:10:17;;;;;;;0.35;0.10;;;;;;;;;;4964990;28;20129;-72
2021/12/28 09:12:44;;;;;;;0.20;0.20;;;;;;;;;;4963172;28;20113;-71
2021/12/28 09:15:11;;;;;;;1.80;0.25;;;;;;;;;;4966873;28;20050;-71
2021/12/28 09:17:40;;;;;;;1.80;0.20;;;;;;;;;;4960757;28;20058;-67
2021/12/28 09:20:10;;;;;;;0.30;0.20;;;;;;;;;;4965767;28;20078;-65
2021/12/28 09:22:57;;;;;;;0.05;0.05;;;;;;;;;;4963836;28;20137;-64
2021/12/28 09:25:24;;;;;;;0.45;0.20;;;;;;;;;;4960854;28;20076;-66
2021/12/28 09:27:52;;;;;;;0.30;0.15;;;;;;;;;;4963935;28;20121;-66
2021/12/28 09:30:18;;;;;;;0.20;0.20;;;;;;;;;;4960882;28;20055;-66
2021/12/28 09:32:45;;;;;;;1.55;0.30;;;;;;;;;;4963639;28;20074;-67
2021/12/28 09:35:12;;;;;;;0.20;0.20;;;;;;;;;;4962763;28;20065;-66
2021/12/28 09:37:39;;;;;;;0.65;0.32;;;;;;;;;;4964811;28;20074;-69
2021/12/28 09:40:08;;;;;;;0.40;0.30;;;;;;;;;;4962309;28;20085;-67
2021/12/28 09:42:35;;;;;;;0.32;0.28;;;;;;;;;;4959832;28;20051;-66
2021/12/28 09:45:03;;;;;;;0.88;0.25;;;;;;;;;;4962312;28;20565;-67
2021/12/28 09:47:30;;;;;;;0.90;0.25;;;;;;;;;;4961097;28;20061;-67
2021/12/28 09:50:02;;;;;;;0.75;0.43;;;;;;;;;;4964693;28;20055;-65
2021/12/28 09:52:29;;;;;;;0.60;0.43;;;;;;;;;;4962409;28;20057;-67
2021/12/28 09:54:56;;;;;;;0.35;0.30;;;;;;;;;;4961784;28;20121;-67
2021/12/28 09:57:22;;;;;;;0.30;0.10;;;;;;;;;;4961022;28;20051;-66
2021/12/28 09:59:49;;;;;;;0.28;0.25;;;;;;;;;;4961615;28;20424;-66
2021/12/28 10:02:16;;;;;;;0.52;0.20;;;;;;;;;;4961530;28;20077;-66
2021/12/28 10:04:59;;;;;;;0.15;0.15;;;;;;;;;;4962116;28;20131;-67
2021/12/28 10:07:30;;;;;;;0.52;0.20;;;;;;;;;;4977355;23;20480;-69
2021/12/28 10:09:57;;;;;;;0.45;0.20;;;;;;;;;;4936395;29;20059;-66
2021/12/28 10:12:35;;;;;;;0.20;0.10;;;;;;;;;;4944464;29;20054;-65
2021/12/28 10:15:09;;;;;;;0.40;0.20;;;;;;;;;;4942519;29;20467;-64
2021/12/28 10:17:37;;;;;;;0.30;0.28;;;;;;;;;;4933161;28;20052;-67
2021/12/28 10:20:16;;;;;;;0.40;0.20;;;;;;;;;;4921422;29;20047;-69
2021/12/28 10:22:47;;;;;;;0.32;0.28;;;;;;;;;;4930415;29;20134;-67
2021/12/28 10:25:21;;;;;;;0.20;0.20;;;;;;;;;;4921831;29;20526;-68
2021/12/28 10:27:50;;;;;;;0.55;0.30;;;;;;;;;;4920915;29;20052;-67
2021/12/28 10:30:21;;;;;;;0.85;0.20;;;;;;;;;;4925554;29;20083;-68
2021/12/28 10:32:51;;;;;;;0.38;0.30;;;;;;;;;;4920369;29;20040;-68
2021/12/28 10:35:25;;;;;;;0.25;0.20;;;;;;;;;;4927047;29;20115;-67
2021/12/28 10:38:01;;;;;;;0.20;0.20;;;;;;;;;;4935608;29;20052;-68
2021/12/28 10:40:36;;;;;;;0.32;0.20;;;;;;;;;;4921061;29;20130;-66
2021/12/28 10:43:14;;;;;;;0.25;0.25;;;;;;;;;;4922980;29;20040;-67
2021/12/28 10:45:44;;;;;;;0.65;0.25;;;;;;;;;;4925788;29;20115;-66
2021/12/28 10:48:16;;;;;;;0.50;0.30;;;;;;;;;;4922344;29;20048;-67
2021/12/28 10:51:02;;;;;;;0.75;0.13;;;;;;;;;;4925366;29;20522;-67
2021/12/28 10:53:38;;;;;;;0.93;0.32;;;;;;;;;;4925655;29;20059;-67
2021/12/28 10:56:07;;;;;;;0.57;0.20;;;;;;;;;;4925432;29;20111;-67
2021/12/28 10:58:41;;;;;;;0.38;0.30;;;;;;;;;;4924878;29;20400;-64
2021/12/28 11:01:12;;;;;;;0.70;0.60;;;;;;;;;;4921480;29;20052;-64
2021/12/28 11:03:41;;;;;;;0.20;0.20;;;;;;;;;;4923638;29;20044;-65
2021/12/28 11:06:12;;;;;;;0.32;0.32;;;;;;;;;;4922102;29;20102;-65
2021/12/28 11:08:39;;;;;;;0.30;0.20;;;;;;;;;;4920369;29;20478;-64
2021/12/28 11:11:08;;;;;;;2.05;0.28;;;;;;;;;;4925060;29;20055;-65
2021/12/28 11:13:36;;;;;;;0.50;0.30;;;;;;;;;;4923825;29;20039;-66
2021/12/28 11:16:05;;;;;;;0.20;0.20;;;;;;;;;;4936713;29;20047;-64
2021/12/28 11:18:37;;;;;;;0.50;0.20;;;;;;;;;;4920795;29;20060;-66
2021/12/28 11:21:14;;;;;;;0.40;0.17;;;;;;;;;;4922246;29;20051;-65
2021/12/28 11:23:42;;;;;;;0.60;0.47;;;;;;;;;;4920973;29;20135;-66
2021/12/28 11:26:33;;;;;;;1.90;0.70;;;;;;;;;;4918906;29;20422;-66
2021/12/28 11:29:07;;;;;;;0.15;0.13;;;;;;;;;;4919300;29;20048;-65
2021/12/28 11:31:43;;;;;;;0.10;0.10;;;;;;;;;;4920477;29;20422;-66
2021/12/28 11:34:30;;;;;;;0.10;0.10;;;;;;;;;;4919697;29;20083;-66
2021/12/28 11:37:04;;;;;;;0.52;0.20;;;;;;;;;;4918966;29;20055;-64
2021/12/28 11:39:36;;;;;;;4.05;0.40;;;;;;;;;;4920773;29;20052;-64
2021/12/28 11:42:05;;;;;;;0.35;0.30;;;;;;;;;;4922575;29;20048;-64
2021/12/28 11:44:35;;;;;;;0.25;0.22;;;;;;;;;;4919876;29;20486;-65
2021/12/28 11:47:04;;;;;;;0.70;0.30;;;;;;;;;;4922260;29;20047;-64
2021/12/28 11:49:31;;;;;;;0.35;0.20;;;;;;;;;;4916071;29;20512;-66
2021/12/28 11:52:01;;;;;;;0.55;0.20;;;;;;;;;;4920741;29;20495;-66
2021/12/28 11:54:34;;;;;;;1.30;0.30;;;;;;;;;;4919988;29;20396;-66
2021/12/28 11:57:10;;;;;;;1.80;0.82;;;;;;;;;;4933861;29;20139;-67
2021/12/28 11:59:39;;;;;;;0.52;0.30;;;;;;;;;;4925521;29;20070;-68
2021/12/28 12:02:11;;;;;;;0.20;0.20;;;;;;;;;;4936527;29;20544;-68
2021/12/28 12:04:45;;;;;;;1.17;0.50;;;;;;;;;;4920289;29;20126;-64
2021/12/28 12:07:16;;;;;;;0.82;0.60;;;;;;;;;;4919494;29;20055;-66
2021/12/28 12:09:49;;;;;;;1.55;0.80;;;;;;;;;;4920211;29;20510;-66
2021/12/28 12:12:28;;;;;;;0.85;0.40;;;;;;;;;;4923866;29;20063;-64
2021/12/28 12:14:57;;;;;;;0.65;0.35;;;;;;;;;;4924131;29;20048;-66
2021/12/28 12:17:39;;;;;;;1.15;0.77;;;;;;;;;;4921817;29;20103;-67
2021/12/28 12:20:27;;;;;;;1.42;0.85;;;;;;;;;;4920714;29;20064;-67
2021/12/28 12:23:10;;;;;;;0.80;0.80;;;;;;;;;;4919358;29;20079;-66
2021/12/28 12:25:49;;;;;;;2.03;1.58;;;;;;;;;;4924308;29;20044;-66
2021/12/28 12:28:39;;;;;;;3.55;1.92;;;;;;;;;;4920852;29;20060;-69
2021/12/28 12:31:10;;;;;;;5.57;2.88;;;;;;;;;;4920347;29;20052;-66
2021/12/28 12:33:39;;;;;;;3.15;2.03;;;;;;;;;;4930337;29;20052;-65
2021/12/28 12:36:10;;;;;;;1.90;0.93;;;;;;;;;;4921587;29;20048;-67
2021/12/28 12:38:38;;;;;;;0.60;0.60;;;;;;;;;;4919209;29;20056;-67
2021/12/28 12:41:35;;;;;;;0.80;0.80;;;;;;;;;;4939758;29;20052;-69
2021/12/28 12:44:14;;;;;;;0.88;0.82;;;;;;;;;;4918991;29;20047;-65
2021/12/28 12:46:44;;;;;;;2.38;0.70;;;;;;;;;;4920890;29;20083;-66
2021/12/28 12:49:22;;;;;;;0.68;0.68;;;;;;;;;;4920933;29;20048;-68
2021/12/28 12:51:59;;;;;;;0.40;0.40;;;;;;;;;;4935665;29;20448;-65
2021/12/28 12:54:45;;;;;;;1.77;0.50;;;;;;;;;;4920672;29;20062;-64
2021/12/28 12:57:27;;;;;;;1.13;0.50;;;;;;;;;;4924069;29;20093;-68
2021/12/28 12:59:58;;;;;;;0.52;0.30;;;;;;;;;;4935985;29;20056;-67
2021/12/28 13:02:28;;;;;;;1.10;0.50;;;;;;;;;;4926168;29;20055;-66
2021/12/28 13:05:01;;;;;;;0.80;0.40;;;;;;;;;;4923233;29;20048;-65
2021/12/28 13:07:31;;;;;;;0.28;0.20;;;;;;;;;;4925577;29;20067;-65
2021/12/28 13:10:06;;;;;;;1.60;0.45;;;;;;;;;;4924568;29;20506;-66
2021/12/28 13:12:39;;;;;;;0.60;0.40;;;;;;;;;;4922799;29;20055;-67
2021/12/28 13:15:08;;;;;;;1.08;0.50;;;;;;;;;;4922500;29;20419;-66
2021/12/28 13:17:39;;;;;;;1.80;0.60;;;;;;;;;;4923480;29;20078;-66
2021/12/28 13:20:30;;;;;;;1.70;0.77;;;;;;;;;;4923183;29;20056;-69
2021/12/28 13:22:59;;;;;;;1.23;0.77;;;;;;;;;;4933254;28;20055;-67
2021/12/28 13:25:36;;;;;;;0.98;0.40;;;;;;;;;;4924399;29;20395;-67
2021/12/28 13:28:06;;;;;;;0.50;0.30;;;;;;;;;;4922689;29;20060;-69
2021/12/28 13:30:36;;;;;;;0.98;0.68;;;;;;;;;;4924387;29;20547;-73
2021/12/28 13:33:19;;;;;;;0.90;0.70;;;;;;;;;;4924464;29;20095;-69
2021/12/28 13:35:48;;;;;;;0.95;0.52;;;;;;;;;;4922745;29;20056;-70
2021/12/28 13:38:16;;;;;;;0.55;0.40;;;;;;;;;;4927596;29;20058;-68
2021/12/28 13:40:54;;;;;;;2.05;0.70;;;;;;;;;;4922718;29;20067;-67
2021/12/28 13:43:24;;;;;;;2.72;1.00;;;;;;;;;;4923971;29;20123;-68
2021/12/28 13:46:00;;;;;;;2.03;0.80;;;;;;;;;;4926167;29;20111;-67
2021/12/28 13:48:40;;;;;;;0.65;0.40;;;;;;;;;;4923016;29;20091;-69
2021/12/28 13:51:18;;;;;;;0.93;0.40;;;;;;;;;;4922223;29;20048;-67
2021/12/28 13:53:52;;;;;;;0.50;0.40;;;;;;;;;;4923569;29;20102;-65
2021/12/28 13:56:30;;;;;;;0.98;0.60;;;;;;;;;;4923315;29;20119;-67
2021/12/28 13:58:57;;;;;;;1.75;0.80;;;;;;;;;;4922163;29;20118;-66
2021/12/28 14:01:25;;;;;;;1.27;0.60;;;;;;;;;;4925019;29;20068;-67
2021/12/28 14:03:59;;;;;;;1.60;0.93;;;;;;;;;;4922805;29;20044;-66
2021/12/28 14:06:27;;;;;;;5.03;1.92;;;;;;;;;;4924802;29;20078;-65
2021/12/28 14:08:54;;;;;;;2.88;1.48;;;;;;;;;;4923050;29;20048;-66
2021/12/28 14:11:43;;;;;;;2.45;1.10;;;;;;;;;;4933242;29;20056;-66
2021/12/28 14:14:34;;;;;;;2.15;0.90;;;;;;;;;;4924586;29;20099;-67
2021/12/28 14:17:14;;;;;;;1.08;0.60;;;;;;;;;;4922413;29;20048;-66
2021/12/28 14:19:51;;;;;;;3.10;0.63;;;;;;;;;;4923199;29;20079;-66
2021/12/28 14:22:19;;;;;;;3.25;0.95;;;;;;;;;;4921637;29;20052;-66
2021/12/28 14:24:54;;;;;;;2.90;0.95;;;;;;;;;;4924516;29;20471;-67
2021/12/28 14:27:26;;;;;;;3.88;1.48;;;;;;;;;;4923299;29;20135;-66
2021/12/28 14:29:59;;;;;;;0.88;0.50;;;;;;;;;;4921911;29;20107;-65
2021/12/28 14:32:40;;;;;;;0.70;0.50;;;;;;;;;;4924651;29;20047;-67
2021/12/28 14:35:09;;;;;;;1.35;0.32;;;;;;;;;;4920462;29;20446;-67
2021/12/28 14:37:38;;;;;;;3.00;0.70;;;;;;;;;;4919138;29;20087;-68
2021/12/28 14:40:17;;;;;;;2.10;0.70;;;;;;;;;;4936936;29;20095;-65
2021/12/28 14:42:47;;;;;;;2.42;0.70;;;;;;;;;;4920946;29;20135;-67
2021/12/28 14:45:16;;;;;;;2.55;0.70;;;;;;;;;;4919702;29;20056;-66
2021/12/28 14:47:44;;;;;;;2.40;0.68;;;;;;;;;;4924599;29;20502;-66
2021/12/28 14:50:18;;;;;;;2.47;0.60;;;;;;;;;;4924659;29;20062;-67
2021/12/28 14:52:49;;;;;;;4.15;1.00;;;;;;;;;;4920468;29;20048;-66
2021/12/28 14:55:18;;;;;;;2.20;1.10;;;;;;;;;;4920280;29;20080;-66
2021/12/28 14:57:46;;;;;;;1.77;0.80;;;;;;;;;;4921586;29;20048;-66
2021/12/28 15:00:20;;;;;;;1.33;0.73;;;;;;;;;;4920792;29;20098;-67